Time;durP1;ratioP1;P1;durP2;ratioP2;P2;SDS_P1;SDS_P2;PMS_P1;PMS_P2;Temp;Humidity;BMP_temperature;BMP_pressure;BME280_temperature;BME280_humidity;BME280_pressure;Samples;Min_cycle;Max_cycle;Signal;HPM_P1;HPM_P2
2021/01/10 00:01:34;;;;;;;2.50;2.30;;;17.30;52.30;;;;;;5087124;28;20630;-62
2021/01/10 00:03:59;;;;;;;2.95;2.22;;;17.30;52.20;;;;;;5086891;28;20541;-62
2021/01/10 00:06:25;;;;;;;4.65;2.53;;;17.30;52.30;;;;;;5087014;28;20235;-62
2021/01/10 00:08:51;;;;;;;5.20;2.95;;;17.30;52.30;;;;;;5087089;28;20178;-61
2021/01/10 00:11:16;;;;;;;2.65;2.33;;;17.20;52.10;;;;;;5086641;28;20227;-62
2021/01/10 00:13:42;;;;;;;3.83;2.55;;;17.20;52.10;;;;;;5087037;28;20170;-62
2021/01/10 00:16:07;;;;;;;3.85;2.92;;;17.20;52.10;;;;;;5086733;28;20178;-62
2021/01/10 00:18:33;;;;;;;2.88;2.17;;;17.20;52.10;;;;;;5086509;28;20224;-64
2021/01/10 00:20:58;;;;;;;3.22;2.72;;;17.20;52.10;;;;;;5086593;28;20169;-64
2021/01/10 00:23:24;;;;;;;3.13;2.70;;;17.20;52.00;;;;;;5086127;28;20174;-63
2021/01/10 00:25:51;;;;;;;2.53;2.33;;;17.10;52.00;;;;;;5086330;28;20545;-62
2021/01/10 00:28:17;;;;;;;2.80;2.60;;;17.10;51.90;;;;;;5086413;28;20418;-61
2021/01/10 00:30:42;;;;;;;4.30;2.78;;;17.10;51.90;;;;;;5086486;28;20639;-62
2021/01/10 00:33:08;;;;;;;3.88;2.30;;;17.00;51.80;;;;;;5086088;28;20582;-62
2021/01/10 00:35:34;;;;;;;2.67;2.30;;;17.10;51.90;;;;;;5086182;28;20550;-62
2021/01/10 00:37:59;;;;;;;2.60;2.40;;;17.10;51.90;;;;;;5086080;28;20359;-62
2021/01/10 00:40:25;;;;;;;2.83;2.38;;;17.00;51.90;;;;;;5086357;28;20178;-62
2021/01/10 00:42:51;;;;;;;2.60;2.33;;;17.00;51.80;;;;;;5067725;28;20173;-61
2021/01/10 00:45:17;;;;;;;3.80;2.80;;;17.00;51.80;;;;;;5086098;28;20509;-62
2021/01/10 00:47:42;;;;;;;4.00;2.70;;;17.00;51.80;;;;;;5085599;28;20689;-63
2021/01/10 00:50:09;;;;;;;3.45;2.45;;;17.00;51.80;;;;;;5085704;28;20200;-62
2021/01/10 00:52:34;;;;;;;3.90;2.55;;;17.00;51.80;;;;;;5086009;28;20172;-61
2021/01/10 00:55:00;;;;;;;3.15;2.45;;;17.00;51.70;;;;;;5085800;28;20174;-64
2021/01/10 00:57:26;;;;;;;2.83;2.28;;;17.00;51.70;;;;;;5085814;28;20259;-61
2021/01/10 00:59:51;;;;;;;2.78;2.58;;;16.90;51.60;;;;;;5085741;28;20588;-61
2021/01/10 01:02:17;;;;;;;2.67;2.47;;;16.90;51.60;;;;;;5085636;28;20603;-61
2021/01/10 01:04:42;;;;;;;3.67;2.60;;;16.90;51.70;;;;;;5085600;28;20178;-61
2021/01/10 01:07:08;;;;;;;3.28;2.80;;;16.90;51.60;;;;;;5085687;28;20270;-61
2021/01/10 01:09:34;;;;;;;3.83;2.75;;;16.90;51.60;;;;;;5085629;28;20555;-61
2021/01/10 01:12:00;;;;;;;4.30;2.60;;;16.90;51.60;;;;;;5085636;28;20268;-62
2021/01/10 01:14:26;;;;;;;2.63;2.30;;;16.90;51.60;;;;;;5084927;28;20240;-62
2021/01/10 01:16:51;;;;;;;3.17;2.85;;;16.90;51.50;;;;;;5085464;28;20297;-61
2021/01/10 01:19:17;;;;;;;3.05;2.50;;;16.80;51.50;;;;;;5085890;28;20249;-63
2021/01/10 01:21:42;;;;;;;3.85;2.85;;;16.90;51.50;;;;;;5085513;28;20170;-61
2021/01/10 01:24:08;;;;;;;2.85;2.63;;;16.80;51.50;;;;;;5085706;28;20177;-59
2021/01/10 01:26:34;;;;;;;3.60;3.10;;;16.80;51.50;;;;;;5085238;28;20654;-61
2021/01/10 01:28:59;;;;;;;4.20;2.80;;;16.80;51.50;;;;;;5085329;28;20197;-61
2021/01/10 01:31:27;;;;;;;3.47;2.70;;;16.80;51.50;;;;;;5085882;28;20695;-60
2021/01/10 01:33:52;;;;;;;3.90;2.58;;;16.80;51.50;;;;;;5067189;28;20174;-60
2021/01/10 01:36:23;;;;;;;3.63;2.85;;;16.80;51.50;;;;;;5085392;28;20647;-61
2021/01/10 01:38:50;;;;;;;3.00;2.42;;;16.70;51.40;;;;;;5085205;28;20185;-61
2021/01/10 01:41:15;;;;;;;4.40;2.72;;;16.70;51.50;;;;;;5085060;28;20615;-62
2021/01/10 01:43:41;;;;;;;3.72;2.67;;;16.70;51.40;;;;;;5085365;28;20256;-62
2021/01/10 01:46:11;;;;;;;3.20;2.90;;;16.70;51.40;;;;;;5084991;28;20162;-62
2021/01/10 01:48:37;;;;;;;3.70;2.63;;;16.70;51.40;;;;;;5084932;28;20668;-62
2021/01/10 01:51:03;;;;;;;3.42;2.92;;;16.70;51.40;;;;;;5084766;28;20169;-61
2021/01/10 01:53:29;;;;;;;3.00;2.47;;;16.70;51.40;;;;;;5084254;28;20181;-61
2021/01/10 01:55:55;;;;;;;3.00;2.47;;;16.70;51.40;;;;;;5084780;28;20192;-60
2021/01/10 01:58:21;;;;;;;3.33;3.03;;;16.70;51.30;;;;;;5084960;28;20205;-61
2021/01/10 02:00:47;;;;;;;3.28;2.97;;;16.70;51.30;;;;;;5084833;28;20271;-62
2021/01/10 02:03:29;;;;;;;2.90;2.70;;;16.60;51.20;;;;;;5084654;28;20638;-61
2021/01/10 02:05:57;;;;;;;3.97;3.00;;;16.60;51.30;;;;;;5066599;28;20181;-60
2021/01/10 02:08:23;;;;;;;3.35;2.85;;;16.60;51.20;;;;;;5066733;28;20165;-59
2021/01/10 02:10:49;;;;;;;3.30;3.00;;;16.60;51.20;;;;;;5066510;28;20670;-60
2021/01/10 02:13:15;;;;;;;4.80;2.75;;;16.60;51.20;;;;;;5066471;28;20284;-60
2021/01/10 02:15:41;;;;;;;4.53;2.83;;;16.60;51.20;;;;;;5084569;28;20170;-62
2021/01/10 02:18:07;;;;;;;2.90;2.60;;;16.60;51.20;;;;;;5066402;28;20205;-61
2021/01/10 02:20:37;;;;;;;3.00;2.67;;;16.60;51.20;;;;;;5066287;28;21016;-62
2021/01/10 02:23:10;;;;;;;2.90;2.70;;;16.50;51.10;;;;;;5084295;28;20188;-61
2021/01/10 02:25:44;;;;;;;3.55;2.90;;;16.50;51.10;;;;;;5066485;28;20174;-61
2021/01/10 02:28:09;;;;;;;2.95;2.60;;;16.50;51.10;;;;;;5066565;28;20245;-60
2021/01/10 02:30:39;;;;;;;2.47;2.28;;;16.50;51.10;;;;;;5066094;28;20174;-59
2021/01/10 02:33:11;;;;;;;3.22;2.92;;;16.50;51.10;;;;;;5066584;28;20224;-59
2021/01/10 02:35:37;;;;;;;3.47;3.17;;;16.50;51.10;;;;;;5084140;28;20170;-60
2021/01/10 02:38:11;;;;;;;3.28;2.80;;;16.50;51.10;;;;;;5066095;28;20212;-60
2021/01/10 02:40:40;;;;;;;3.42;2.97;;;16.50;51.10;;;;;;5066105;28;20181;-61
2021/01/10 02:43:14;;;;;;;2.95;2.60;;;16.50;51.00;;;;;;5084393;28;20173;-62
2021/01/10 02:45:42;;;;;;;4.38;2.83;;;16.50;51.00;;;;;;5067416;28;20173;-62
2021/01/10 02:48:09;;;;;;;3.20;2.90;;;16.40;51.00;;;;;;5067054;28;20269;-61
2021/01/10 02:50:35;;;;;;;3.03;2.78;;;16.40;50.90;;;;;;5084066;28;20166;-61
2021/01/10 02:53:01;;;;;;;2.85;2.65;;;16.40;50.90;;;;;;5083836;28;20184;-61
2021/01/10 02:55:26;;;;;;;2.72;2.53;;;16.40;50.90;;;;;;5065924;28;20193;-61
2021/01/10 02:58:19;;;;;;;3.95;3.15;;;16.40;50.90;;;;;;5084124;28;20663;-61
2021/01/10 03:00:47;;;;;;;3.28;2.60;;;16.40;50.90;;;;;;5068470;28;20205;-60
2021/01/10 03:03:13;;;;;;;3.60;3.30;;;16.40;50.90;;;;;;5084004;28;20224;-60
2021/01/10 03:05:38;;;;;;;3.05;2.75;;;16.40;50.80;;;;;;5067603;28;20627;-60
2021/01/10 03:08:04;;;;;;;4.50;3.28;;;16.40;50.80;;;;;;5069915;28;20178;-60
2021/01/10 03:10:29;;;;;;;3.05;2.83;;;16.30;50.80;;;;;;5070320;28;20178;-61
2021/01/10 03:12:55;;;;;;;3.28;2.97;;;16.30;50.70;;;;;;5070315;28;20628;-61
2021/01/10 03:15:20;;;;;;;4.28;3.65;;;16.30;50.70;;;;;;5069845;28;20266;-61
2021/01/10 03:17:47;;;;;;;3.03;2.75;;;16.30;50.70;;;;;;5087511;28;20233;-60
2021/01/10 03:20:17;;;;;;;3.70;3.05;;;16.20;50.60;;;;;;5087731;28;20174;-61
2021/01/10 03:22:45;;;;;;;4.10;3.13;;;16.30;50.70;;;;;;5087686;28;20639;-61
2021/01/10 03:25:11;;;;;;;4.03;3.45;;;16.20;50.70;;;;;;5087787;28;20169;-60
2021/01/10 03:27:37;;;;;;;3.47;3.17;;;16.20;50.70;;;;;;5087793;28;20181;-62
2021/01/10 03:30:04;;;;;;;3.08;2.50;;;16.20;50.60;;;;;;5087590;28;20218;-60
2021/01/10 03:32:30;;;;;;;3.60;3.30;;;16.20;50.60;;;;;;5087485;28;20215;-60
2021/01/10 03:34:55;;;;;;;4.40;3.08;;;16.20;50.60;;;;;;5087709;28;20262;-61
2021/01/10 03:37:21;;;;;;;3.58;3.00;;;16.20;50.60;;;;;;5087307;28;20209;-60
2021/01/10 03:39:46;;;;;;;3.53;3.22;;;16.20;50.50;;;;;;5087697;28;20178;-61
2021/01/10 03:42:12;;;;;;;3.50;3.20;;;16.20;51.20;;;;;;5087545;28;20178;-62
2021/01/10 03:44:37;;;;;;;5.25;3.50;;;16.20;51.20;;;;;;5087197;28;20281;-61
2021/01/10 03:47:03;;;;;;;3.65;3.22;;;16.20;50.60;;;;;;5087116;28;20209;-62
2021/01/10 03:49:29;;;;;;;3.67;3.13;;;16.20;50.50;;;;;;5087727;28;20682;-61
2021/01/10 03:51:54;;;;;;;4.25;3.15;;;16.10;50.60;;;;;;5087253;28;20261;-62
2021/01/10 03:54:20;;;;;;;3.95;3.40;;;16.10;50.60;;;;;;5087332;28;20181;-61
2021/01/10 03:56:45;;;;;;;3.47;3.17;;;16.10;50.50;;;;;;5087248;28;20309;-61
2021/01/10 03:59:11;;;;;;;3.80;2.95;;;16.10;50.50;;;;;;5086892;28;20739;-61
2021/01/10 04:01:36;;;;;;;4.63;3.47;;;16.10;50.50;;;;;;5086835;28;20190;-60
2021/01/10 04:04:02;;;;;;;3.97;3.55;;;16.10;50.50;;;;;;5086823;28;20182;-61
2021/01/10 04:06:28;;;;;;;3.38;3.13;;;16.10;50.50;;;;;;5086983;28;20976;-60
2021/01/10 04:08:54;;;;;;;3.45;3.15;;;16.10;50.50;;;;;;5086739;28;20174;-60
2021/01/10 04:11:21;;;;;;;3.83;3.45;;;16.00;50.40;;;;;;5086639;28;20453;-62
2021/01/10 04:13:46;;;;;;;5.68;3.80;;;16.00;50.40;;;;;;5068644;28;20182;-61
2021/01/10 04:16:12;;;;;;;4.90;3.40;;;16.00;50.40;;;;;;5086669;28;20174;-62
2021/01/10 04:18:38;;;;;;;4.13;3.72;;;16.00;50.40;;;;;;5085694;28;20216;-61
2021/01/10 04:21:04;;;;;;;3.45;3.15;;;16.00;50.40;;;;;;5068716;28;20174;-62
2021/01/10 04:23:29;;;;;;;3.33;3.03;;;16.00;50.40;;;;;;5068487;28;21003;-62
2021/01/10 04:25:55;;;;;;;3.90;3.50;;;16.00;50.40;;;;;;5086673;28;20700;-59
2021/01/10 04:28:20;;;;;;;5.20;3.63;;;16.00;50.40;;;;;;5086560;28;21056;-61
2021/01/10 04:30:46;;;;;;;4.70;3.83;;;16.00;50.40;;;;;;5086257;28;20265;-59
2021/01/10 04:33:12;;;;;;;4.70;4.30;;;16.00;50.40;;;;;;5086186;28;20546;-61
2021/01/10 04:35:37;;;;;;;5.15;3.83;;;16.00;50.40;;;;;;5086417;28;20166;-61
2021/01/10 04:38:03;;;;;;;5.65;3.63;;;16.00;50.40;;;;;;5086267;28;20296;-61
2021/01/10 04:40:28;;;;;;;4.03;3.40;;;16.00;50.40;;;;;;5086141;28;20170;-61
2021/01/10 04:42:54;;;;;;;5.32;4.20;;;16.00;50.40;;;;;;5085890;28;20178;-61
2021/01/10 04:45:20;;;;;;;4.25;3.80;;;15.90;50.30;;;;;;5067968;28;20178;-61
2021/01/10 04:47:46;;;;;;;4.10;3.55;;;15.90;50.40;;;;;;5086043;28;20170;-62
2021/01/10 04:50:11;;;;;;;6.20;4.03;;;15.90;50.30;;;;;;5085965;28;20249;-62
2021/01/10 04:52:37;;;;;;;4.07;3.65;;;15.90;50.30;;;;;;5085956;28;20231;-62
2021/01/10 04:55:03;;;;;;;4.60;3.55;;;15.90;50.30;;;;;;5085695;28;20204;-60
2021/01/10 04:57:29;;;;;;;3.75;3.28;;;15.90;50.40;;;;;;5067697;28;20694;-61
2021/01/10 04:59:55;;;;;;;4.25;3.85;;;15.90;50.30;;;;;;5067411;28;20203;-61
2021/01/10 05:02:25;;;;;;;4.18;3.75;;;15.90;50.40;;;;;;5067728;28;20530;-61
2021/01/10 05:04:50;;;;;;;5.18;3.90;;;15.90;50.30;;;;;;5067791;28;20166;-61
2021/01/10 05:07:16;;;;;;;4.35;3.60;;;15.80;50.30;;;;;;5085419;28;20178;-59
2021/01/10 05:09:41;;;;;;;4.22;3.60;;;15.80;50.30;;;;;;5067691;28;20260;-58
2021/01/10 05:12:07;;;;;;;4.18;3.53;;;15.80;50.30;;;;;;5067365;28;20180;-61
2021/01/10 05:14:32;;;;;;;4.30;3.72;;;15.80;50.30;;;;;;5085401;28;20177;-62
2021/01/10 05:17:02;;;;;;;3.92;3.53;;;15.80;50.30;;;;;;5085701;28;20667;-61
2021/01/10 05:19:31;;;;;;;3.50;3.30;;;15.80;50.30;;;;;;5085527;28;20170;-63
2021/01/10 05:21:56;;;;;;;4.55;3.40;;;15.80;50.30;;;;;;5085014;28;20174;-61
2021/01/10 05:24:22;;;;;;;4.60;3.53;;;15.80;50.30;;;;;;5067250;28;20712;-61
2021/01/10 05:26:48;;;;;;;5.32;4.00;;;15.70;50.30;;;;;;5067340;28;20231;-59
2021/01/10 05:29:14;;;;;;;3.85;3.45;;;15.70;50.30;;;;;;5065731;28;20969;-61
2021/01/10 05:31:41;;;;;;;4.22;3.78;;;15.70;50.30;;;;;;5085099;28;20178;-61
2021/01/10 05:34:17;;;;;;;3.67;3.05;;;15.80;50.30;;;;;;5084593;28;20700;-61
2021/01/10 05:36:42;;;;;;;3.25;2.90;;;15.70;50.30;;;;;;5085108;28;20201;-59
2021/01/10 05:39:22;;;;;;;3.75;3.33;;;15.70;50.30;;;;;;5085160;28;20537;-61
2021/01/10 05:41:56;;;;;;;3.35;3.05;;;15.70;50.30;;;;;;5085277;28;20596;-62
2021/01/10 05:44:26;;;;;;;3.50;3.20;;;15.70;50.30;;;;;;5084888;28;20205;-61
2021/01/10 05:47:04;;;;;;;3.63;3.30;;;15.70;50.30;;;;;;5084900;28;20651;-62
2021/01/10 05:49:30;;;;;;;3.28;2.97;;;15.70;50.30;;;;;;5085062;28;20174;-61
2021/01/10 05:51:55;;;;;;;3.35;2.90;;;15.70;50.30;;;;;;5084810;28;21026;-60
2021/01/10 05:54:36;;;;;;;4.20;3.33;;;15.70;50.30;;;;;;5066813;28;20178;-61
2021/01/10 05:57:03;;;;;;;3.63;3.25;;;15.60;50.20;;;;;;5084738;28;20274;-60
2021/01/10 05:59:29;;;;;;;3.92;3.17;;;15.60;50.30;;;;;;5084775;28;20588;-60
2021/01/10 06:01:55;;;;;;;3.63;3.15;;;15.60;50.50;;;;;;5084569;28;20638;-60
2021/01/10 06:04:22;;;;;;;4.03;3.33;;;15.70;50.70;;;;;;5066363;28;20274;-60
2021/01/10 06:06:47;;;;;;;3.10;2.80;;;15.80;50.70;;;;;;5066659;28;20226;-57
2021/01/10 06:09:13;;;;;;;4.10;3.28;;;15.90;50.90;;;;;;5066526;28;20178;-61
2021/01/10 06:11:38;;;;;;;3.40;3.08;;;16.20;50.70;;;;;;5084545;28;20258;-61
2021/01/10 06:14:04;;;;;;;3.85;3.00;;;16.50;50.50;;;;;;5066707;28;20181;-62
2021/01/10 06:16:37;;;;;;;2.70;2.50;;;16.70;50.10;;;;;;5084483;28;20180;-61
2021/01/10 06:19:06;;;;;;;3.22;2.90;;;17.20;49.40;;;;;;5084344;28;20260;-61
2021/01/10 06:21:33;;;;;;;2.75;2.55;;;17.60;48.80;;;;;;5084374;28;20173;-61
2021/01/10 06:24:00;;;;;;;4.00;2.97;;;17.90;48.00;;;;;;5066463;28;20257;-61
2021/01/10 06:26:30;;;;;;;2.78;2.55;;;18.20;47.70;;;;;;5084463;28;20265;-63
2021/01/10 06:28:58;;;;;;;3.20;2.78;;;18.30;47.50;;;;;;5084259;28;20288;-62
2021/01/10 06:31:33;;;;;;;2.72;2.38;;;18.50;47.30;;;;;;5084248;28;20949;-61
2021/01/10 06:34:09;;;;;;;3.22;2.30;;;18.60;47.10;;;;;;5084271;28;20264;-62
2021/01/10 06:36:42;;;;;;;3.22;2.40;;;18.70;47.10;;;;;;5084148;28;20173;-61
2021/01/10 06:39:09;;;;;;;2.63;2.40;;;18.70;47.10;;;;;;5084099;28;20173;-63
2021/01/10 06:41:41;;;;;;;3.83;2.70;;;18.70;47.10;;;;;;5089846;28;20173;-62
2021/01/10 06:44:08;;;;;;;2.88;2.53;;;18.70;47.20;;;;;;5072771;28;20177;-61
2021/01/10 06:46:33;;;;;;;3.97;3.15;;;18.70;47.30;;;;;;5091061;28;21008;-62
2021/01/10 06:49:05;;;;;;;2.40;2.20;;;18.60;47.20;;;;;;5090953;28;20288;-62
2021/01/10 06:51:31;;;;;;;2.70;2.50;;;18.60;47.30;;;;;;5090839;28;20639;-62
2021/01/10 06:53:57;;;;;;;2.50;2.22;;;18.60;47.30;;;;;;5090919;28;20181;-62
2021/01/10 06:56:22;;;;;;;3.35;2.53;;;18.60;47.40;;;;;;5090877;28;20174;-62
2021/01/10 06:59:01;;;;;;;2.47;2.28;;;18.60;48.10;;;;;;5072958;28;20192;-60
2021/01/10 07:01:45;;;;;;;2.97;2.67;;;18.50;47.50;;;;;;5090490;28;20173;-61
2021/01/10 07:04:10;;;;;;;3.05;2.33;;;18.50;47.50;;;;;;5072514;28;20170;-61
2021/01/10 07:06:49;;;;;;;2.70;2.40;;;18.50;47.60;;;;;;5090580;28;20176;-61
2021/01/10 07:09:15;;;;;;;2.20;2.00;;;18.40;47.70;;;;;;5090703;28;20177;-62
2021/01/10 07:11:41;;;;;;;3.08;2.65;;;18.40;47.80;;;;;;5090403;28;20169;-61
2021/01/10 07:14:07;;;;;;;2.70;2.33;;;18.40;47.90;;;;;;5090616;28;20166;-62
2021/01/10 07:16:33;;;;;;;2.42;2.17;;;18.40;47.90;;;;;;5090722;28;20544;-62
2021/01/10 07:19:03;;;;;;;3.17;2.30;;;18.40;47.90;;;;;;5072870;28;20169;-63
2021/01/10 07:21:30;;;;;;;2.92;2.40;;;18.30;47.90;;;;;;5090484;28;20547;-61
2021/01/10 07:24:17;;;;;;;2.90;2.20;;;18.20;48.00;;;;;;5090507;28;20166;-61
2021/01/10 07:26:54;;;;;;;2.42;2.22;;;18.10;48.20;;;;;;5090823;28;20170;-61
2021/01/10 07:29:29;;;;;;;2.88;2.58;;;18.10;48.50;;;;;;5090266;28;20193;-61
2021/01/10 07:31:56;;;;;;;2.92;2.55;;;17.90;48.50;;;;;;5090454;28;20173;-61
2021/01/10 07:34:21;;;;;;;2.45;2.25;;;17.90;48.70;;;;;;5090293;28;20208;-62
2021/01/10 07:36:49;;;;;;;2.40;2.20;;;17.80;48.80;;;;;;5090282;28;20472;-63
2021/01/10 07:39:18;;;;;;;2.90;2.42;;;17.80;48.80;;;;;;5090423;28;20201;-61
2021/01/10 07:41:44;;;;;;;2.78;2.58;;;17.80;48.70;;;;;;5073158;28;20178;-62
2021/01/10 07:44:10;;;;;;;2.45;2.15;;;17.90;48.70;;;;;;5090437;28;20540;-62
2021/01/10 07:46:57;;;;;;;2.47;2.28;;;17.90;48.70;;;;;;5090160;28;20589;-63
2021/01/10 07:49:27;;;;;;;3.00;2.28;;;17.90;48.60;;;;;;5089839;28;20231;-62
2021/01/10 07:51:52;;;;;;;2.20;2.00;;;17.90;48.50;;;;;;5087937;28;20200;-68
2021/01/10 07:54:18;;;;;;;2.50;2.30;;;18.00;48.50;;;;;;5087235;28;20639;-66
2021/01/10 07:56:43;;;;;;;2.60;2.22;;;18.00;48.70;;;;;;5068735;28;20170;-66
2021/01/10 07:59:16;;;;;;;2.75;2.42;;;18.00;48.60;;;;;;5068853;28;20268;-66
2021/01/10 08:01:51;;;;;;;2.20;1.98;;;18.10;48.60;;;;;;5068612;28;20223;-67
2021/01/10 08:04:31;;;;;;;3.05;2.75;;;18.10;48.50;;;;;;5068776;28;20176;-67
2021/01/10 08:06:57;;;;;;;2.28;1.98;;;18.10;48.50;;;;;;5068897;28;20200;-66
2021/01/10 08:09:25;;;;;;;2.38;2.17;;;18.10;48.60;;;;;;5086859;28;20624;-66
2021/01/10 08:11:54;;;;;;;2.97;2.30;;;17.90;48.70;;;;;;5068400;28;20219;-65
2021/01/10 08:14:19;;;;;;;2.53;2.33;;;17.90;48.90;;;;;;5086537;28;20182;-66
2021/01/10 08:16:45;;;;;;;2.63;2.35;;;17.80;49.10;;;;;;5086343;28;20213;-65
2021/01/10 08:19:10;;;;;;;2.63;2.35;;;17.70;49.30;;;;;;5086846;28;20178;-65
2021/01/10 08:21:36;;;;;;;3.67;2.42;;;17.70;49.30;;;;;;5086530;28;20201;-65
2021/01/10 08:24:03;;;;;;;2.80;2.13;;;17.60;49.30;;;;;;5086495;28;20174;-65
2021/01/10 08:26:28;;;;;;;2.42;2.22;;;17.70;49.40;;;;;;5086255;28;20590;-68
2021/01/10 08:28:56;;;;;;;2.67;2.42;;;17.70;49.40;;;;;;5086368;28;20201;-67
2021/01/10 08:31:30;;;;;;;2.72;2.17;;;17.70;49.40;;;;;;5086254;28;20170;-67
2021/01/10 08:34:09;;;;;;;2.67;2.20;;;17.70;49.40;;;;;;5086430;28;20688;-66
2021/01/10 08:36:35;;;;;;;2.60;2.40;;;17.70;49.40;;;;;;5068099;28;20663;-66
2021/01/10 08:39:03;;;;;;;2.38;2.15;;;17.80;49.40;;;;;;5086470;28;20203;-65
2021/01/10 08:41:36;;;;;;;2.65;2.22;;;17.80;49.30;;;;;;5068157;28;20166;-65
2021/01/10 08:44:13;;;;;;;3.33;2.53;;;17.80;49.20;;;;;;5068376;28;20170;-66
2021/01/10 08:46:42;;;;;;;2.58;2.38;;;17.80;49.20;;;;;;5069452;28;20186;-67
2021/01/10 08:49:08;;;;;;;2.88;2.67;;;17.70;49.40;;;;;;5086298;28;20170;-67
2021/01/10 08:51:37;;;;;;;2.80;2.60;;;17.60;49.60;;;;;;5068054;28;20188;-66
2021/01/10 08:54:08;;;;;;;2.75;2.35;;;17.60;49.70;;;;;;5068552;28;20258;-66
2021/01/10 08:56:34;;;;;;;2.67;2.42;;;17.50;49.80;;;;;;5085993;28;20539;-66
2021/01/10 08:58:59;;;;;;;3.33;2.67;;;17.50;50.00;;;;;;5068295;28;20174;-66
2021/01/10 09:01:26;;;;;;;2.42;2.20;;;17.50;50.00;;;;;;5067525;28;20176;-65
2021/01/10 09:04:04;;;;;;;2.20;2.05;;;17.50;50.00;;;;;;5067356;28;20169;-65
2021/01/10 09:07:13;;;;;;;2.38;2.13;;;17.50;50.00;;;;;;5085488;28;20335;-65
2021/01/10 09:09:51;;;;;;;2.78;2.42;;;17.50;49.90;;;;;;5085512;28;20178;-65
2021/01/10 09:12:36;;;;;;;2.67;2.47;;;17.60;49.90;;;;;;5067820;28;20227;-67
2021/01/10 09:15:08;;;;;;;2.53;2.08;;;17.60;49.80;;;;;;5067573;28;20177;-67
2021/01/10 09:17:55;;;;;;;2.70;2.50;;;17.60;49.90;;;;;;5067764;28;20201;-66
2021/01/10 09:20:26;;;;;;;3.45;2.28;;;17.50;49.90;;;;;;5067774;28;20174;-65
2021/01/10 09:22:52;;;;;;;2.42;2.22;;;17.50;49.90;;;;;;5067862;28;20220;-66
2021/01/10 09:25:18;;;;;;;3.83;2.70;;;17.50;50.00;;;;;;5067300;28;20170;-66
2021/01/10 09:28:09;;;;;;;2.45;2.28;;;17.40;50.10;;;;;;5085528;28;20234;-66
2021/01/10 09:30:42;;;;;;;2.83;2.55;;;17.40;50.20;;;;;;5085007;28;20410;-66
2021/01/10 09:33:08;;;;;;;2.25;2.08;;;17.40;50.30;;;;;;5084963;28;20170;-65
2021/01/10 09:35:43;;;;;;;2.40;2.20;;;17.30;50.30;;;;;;5067616;28;20546;-64
2021/01/10 09:38:10;;;;;;;2.90;2.70;;;17.40;50.30;;;;;;5084993;28;20208;-65
2021/01/10 09:40:36;;;;;;;2.40;2.20;;;17.50;50.30;;;;;;5067254;28;20173;-66
2021/01/10 09:43:01;;;;;;;2.58;2.38;;;17.50;50.30;;;;;;5084763;28;20173;-64
2021/01/10 09:45:35;;;;;;;4.47;2.72;;;17.50;50.10;;;;;;5085076;28;20205;-67
2021/01/10 09:48:04;;;;;;;2.90;2.63;;;17.50;50.10;;;;;;5084864;28;20181;-66
2021/01/10 09:50:30;;;;;;;2.63;2.42;;;17.50;50.10;;;;;;5067437;28;20270;-68
2021/01/10 09:52:55;;;;;;;2.53;2.33;;;17.40;50.20;;;;;;5084726;28;20643;-67
2021/01/10 09:55:27;;;;;;;2.70;2.50;;;17.40;50.10;;;;;;5084781;28;20367;-67
2021/01/10 09:57:55;;;;;;;2.75;2.55;;;17.30;50.20;;;;;;5067310;28;20258;-66
2021/01/10 10:00:21;;;;;;;2.40;2.20;;;17.40;50.40;;;;;;5084993;28;20252;-66
2021/01/10 10:02:47;;;;;;;3.05;2.67;;;17.30;50.50;;;;;;5084876;28;20193;-67
2021/01/10 10:05:20;;;;;;;2.75;2.55;;;17.30;50.40;;;;;;5066812;28;20169;-67
2021/01/10 10:07:48;;;;;;;2.78;2.58;;;17.30;50.50;;;;;;5085034;28;20631;-67
2021/01/10 10:10:25;;;;;;;2.80;2.58;;;17.40;50.50;;;;;;5066560;28;20176;-66
2021/01/10 10:13:11;;;;;;;2.58;2.25;;;17.40;50.40;;;;;;5066480;28;20170;-66
2021/01/10 10:15:36;;;;;;;2.30;2.10;;;17.40;50.30;;;;;;5083438;28;20186;-66
2021/01/10 10:18:05;;;;;;;3.08;2.80;;;17.40;50.30;;;;;;5084227;28;20663;-67
2021/01/10 10:20:30;;;;;;;2.88;2.67;;;17.40;50.30;;;;;;5066596;28;20260;-66
2021/01/10 10:23:05;;;;;;;2.50;2.30;;;17.30;50.30;;;;;;5066465;28;20253;-66
2021/01/10 10:25:30;;;;;;;4.07;2.67;;;17.40;50.50;;;;;;5067782;28;20598;-66
2021/01/10 10:28:00;;;;;;;3.03;2.40;;;17.30;50.40;;;;;;5084323;28;20177;-66
2021/01/10 10:30:26;;;;;;;2.75;2.55;;;17.30;50.50;;;;;;5066380;28;20170;-66
2021/01/10 10:32:51;;;;;;;2.88;2.60;;;17.30;50.60;;;;;;5084026;28;20227;-66
2021/01/10 10:35:17;;;;;;;2.60;2.40;;;17.30;50.60;;;;;;5084166;28;20213;-65
2021/01/10 10:37:43;;;;;;;2.95;2.72;;;17.30;50.60;;;;;;5084197;28;20263;-65
2021/01/10 10:40:09;;;;;;;2.75;2.55;;;17.40;50.50;;;;;;5084076;28;20180;-66
2021/01/10 10:42:35;;;;;;;2.40;2.20;;;17.40;50.50;;;;;;5084362;28;20178;-66
2021/01/10 10:45:00;;;;;;;2.47;2.28;;;17.40;50.40;;;;;;5066204;28;20177;-67
2021/01/10 10:47:26;;;;;;;3.08;2.78;;;17.40;50.40;;;;;;5084082;28;20646;-67
2021/01/10 10:49:51;;;;;;;2.72;2.47;;;17.40;50.40;;;;;;5083811;28;20166;-67
2021/01/10 10:52:17;;;;;;;2.90;2.70;;;17.30;50.30;;;;;;5084082;28;20174;-62
2021/01/10 10:54:42;;;;;;;3.45;2.78;;;17.30;50.50;;;;;;5084225;28;20627;-62
2021/01/10 10:57:10;;;;;;;2.95;2.70;;;17.20;50.80;;;;;;5083838;28;20219;-63
2021/01/10 10:59:39;;;;;;;3.28;2.97;;;17.20;51.40;;;;;;5084000;28;20250;-61
2021/01/10 11:02:04;;;;;;;4.40;3.35;;;17.20;51.20;;;;;;5065512;28;20529;-60
2021/01/10 11:04:30;;;;;;;2.92;2.50;;;17.30;51.50;;;;;;5065906;28;20186;-61
2021/01/10 11:06:56;;;;;;;4.47;3.10;;;17.40;51.40;;;;;;5084210;28;20549;-62
2021/01/10 11:09:21;;;;;;;3.58;2.75;;;17.50;51.30;;;;;;5065762;28;20185;-58
2021/01/10 11:11:50;;;;;;;3.15;2.80;;;17.80;51.20;;;;;;5083935;28;20627;-62
2021/01/10 11:14:16;;;;;;;2.95;2.70;;;18.00;51.10;;;;;;5083734;28;20265;-63
2021/01/10 11:16:43;;;;;;;3.17;2.88;;;18.30;50.70;;;;;;5065807;28;20170;-62
2021/01/10 11:19:09;;;;;;;2.97;2.65;;;18.60;50.10;;;;;;5083904;28;20206;-63
2021/01/10 11:21:36;;;;;;;5.07;2.90;;;19.00;49.60;;;;;;5065863;28;20276;-62
2021/01/10 11:24:02;;;;;;;4.60;2.92;;;19.20;49.20;;;;;;5065590;28;20166;-62
2021/01/10 11:26:28;;;;;;;3.35;2.88;;;19.40;48.60;;;;;;5066011;28;20177;-61
2021/01/10 11:28:53;;;;;;;3.95;3.08;;;19.60;48.70;;;;;;5069001;28;20246;-60
2021/01/10 11:31:20;;;;;;;4.97;2.65;;;19.70;48.70;;;;;;5087573;28;20234;-61
2021/01/10 11:33:45;;;;;;;3.38;2.38;;;19.60;48.70;;;;;;5087254;28;20172;-63
2021/01/10 11:36:11;;;;;;;4.78;3.08;;;19.60;48.70;;;;;;5069609;28;20645;-64
2021/01/10 11:38:37;;;;;;;4.47;2.90;;;19.60;48.70;;;;;;5087557;28;20206;-64
2021/01/10 11:41:10;;;;;;;5.05;3.10;;;19.60;48.70;;;;;;5087604;28;20170;-63
2021/01/10 11:43:36;;;;;;;7.05;3.00;;;19.70;48.70;;;;;;5087576;28;20162;-65
2021/01/10 11:46:03;;;;;;;4.63;2.50;;;19.70;48.70;;;;;;5086675;28;20174;-63
2021/01/10 11:48:28;;;;;;;5.30;3.08;;;19.70;48.80;;;;;;5087047;28;20197;-63
2021/01/10 11:50:54;;;;;;;3.65;3.08;;;19.70;48.90;;;;;;5087355;28;20197;-64
2021/01/10 11:53:19;;;;;;;9.25;3.40;;;19.60;49.10;;;;;;5069375;28;20182;-64
2021/01/10 11:55:45;;;;;;;5.00;3.10;;;19.50;49.30;;;;;;5069088;28;20227;-63
2021/01/10 11:58:11;;;;;;;4.13;3.25;;;19.50;49.40;;;;;;5086848;28;20575;-62
2021/01/10 12:00:38;;;;;;;3.45;3.10;;;19.50;49.40;;;;;;5087057;28;20178;-64
2021/01/10 12:03:03;;;;;;;3.95;2.85;;;19.50;49.40;;;;;;5068998;28;20176;-63
2021/01/10 12:05:29;;;;;;;4.80;3.45;;;19.50;49.40;;;;;;5086958;28;20249;-62
2021/01/10 12:07:55;;;;;;;5.13;3.17;;;19.50;49.40;;;;;;5068774;28;20170;-62
2021/01/10 12:10:20;;;;;;;3.40;2.97;;;19.50;49.60;;;;;;5086846;28;20177;-61
2021/01/10 12:12:46;;;;;;;3.40;2.70;;;19.50;49.60;;;;;;5087085;28;20609;-64
2021/01/10 12:15:11;;;;;;;2.97;2.78;;;19.40;49.60;;;;;;5086840;28;20173;-64
2021/01/10 12:17:37;;;;;;;4.32;3.72;;;19.40;49.90;;;;;;5086273;28;20715;-64
2021/01/10 12:20:04;;;;;;;4.30;2.83;;;19.30;49.90;;;;;;5086579;28;20166;-64
2021/01/10 12:22:29;;;;;;;5.57;3.00;;;19.20;50.00;;;;;;5068636;28;20177;-64
2021/01/10 12:24:55;;;;;;;4.13;3.03;;;19.10;50.20;;;;;;5068726;28;20177;-64
2021/01/10 12:27:20;;;;;;;3.67;2.95;;;19.10;50.30;;;;;;5086600;28;20658;-63
2021/01/10 12:29:46;;;;;;;4.47;2.65;;;19.00;51.00;;;;;;5086696;28;20646;-63
2021/01/10 12:32:11;;;;;;;3.15;2.60;;;19.10;50.50;;;;;;5086395;28;20181;-65
2021/01/10 12:34:37;;;;;;;3.35;3.13;;;19.10;50.40;;;;;;5086605;28;20181;-64
2021/01/10 12:37:03;;;;;;;3.15;2.80;;;19.10;50.40;;;;;;5068556;28;20202;-65
2021/01/10 12:39:28;;;;;;;3.97;2.78;;;19.10;50.50;;;;;;5085915;28;20230;-65
2021/01/10 12:41:54;;;;;;;2.92;2.67;;;19.20;50.40;;;;;;5086533;28;20181;-64
2021/01/10 12:44:19;;;;;;;3.92;2.83;;;19.20;50.40;;;;;;5086704;28;20447;-64
2021/01/10 12:46:45;;;;;;;3.75;2.60;;;19.20;50.40;;;;;;5085859;28;20185;-65
2021/01/10 12:49:10;;;;;;;3.00;2.65;;;19.20;50.40;;;;;;5085878;28;20639;-65
2021/01/10 12:51:37;;;;;;;3.13;2.80;;;19.10;50.50;;;;;;5085924;28;20275;-64